sensor_id;sensor_type;location;lat;lon;timestamp;P1;durP1;ratioP1;P2;durP2;ratioP2
68870;SDS011;55906;52.278;6.808;2022-12-29T00:01:51;5.97;;;4.38;;
68870;SDS011;55906;52.278;6.808;2022-12-29T00:04:18;5.95;;;4.72;;
68870;SDS011;55906;52.278;6.808;2022-12-29T00:06:46;6.75;;;4.40;;
68870;SDS011;55906;52.278;6.808;2022-12-29T00:09:13;5.45;;;3.97;;
68870;SDS011;55906;52.278;6.808;2022-12-29T00:11:42;5.27;;;4.07;;
68870;SDS011;55906;52.278;6.808;2022-12-29T00:14:09;6.22;;;4.10;;
68870;SDS011;55906;52.278;6.808;2022-12-29T00:16:54;5.53;;;4.32;;
68870;SDS011;55906;52.278;6.808;2022-12-29T00:19:21;5.28;;;4.07;;
68870;SDS011;55906;52.278;6.808;2022-12-29T00:22:08;5.75;;;4.20;;
68870;SDS011;55906;52.278;6.808;2022-12-29T00:24:53;6.70;;;4.20;;
68870;SDS011;55906;52.278;6.808;2022-12-29T00:27:37;5.20;;;3.90;;
68870;SDS011;55906;52.278;6.808;2022-12-29T00:30:21;5.82;;;4.10;;
68870;SDS011;55906;52.278;6.808;2022-12-29T00:33:09;5.43;;;4.07;;
68870;SDS011;55906;52.278;6.808;2022-12-29T00:35:55;5.70;;;4.10;;
68870;SDS011;55906;52.278;6.808;2022-12-29T00:38:24;5.60;;;4.10;;
68870;SDS011;55906;52.278;6.808;2022-12-29T00:41:09;5.25;;;3.85;;
68870;SDS011;55906;52.278;6.808;2022-12-29T00:43:53;5.63;;;4.50;;
68870;SDS011;55906;52.278;6.808;2022-12-29T00:46:32;5.22;;;4.20;;
68870;SDS011;55906;52.278;6.808;2022-12-29T00:48:59;6.38;;;5.00;;
68870;SDS011;55906;52.278;6.808;2022-12-29T00:51:43;5.60;;;4.27;;
68870;SDS011;55906;52.278;6.808;2022-12-29T00:54:12;5.68;;;3.95;;
68870;SDS011;55906;52.278;6.808;2022-12-29T00:56:38;5.97;;;4.15;;
68870;SDS011;55906;52.278;6.808;2022-12-29T00:59:06;4.68;;;3.50;;
68870;SDS011;55906;52.278;6.808;2022-12-29T01:01:34;5.30;;;4.07;;
68870;SDS011;55906;52.278;6.808;2022-12-29T01:04:01;4.60;;;3.83;;
68870;SDS011;55906;52.278;6.808;2022-12-29T01:06:29;5.22;;;3.92;;
68870;SDS011;55906;52.278;6.808;2022-12-29T01:08:56;5.20;;;3.72;;
68870;SDS011;55906;52.278;6.808;2022-12-29T01:11:38;5.68;;;4.13;;
68870;SDS011;55906;52.278;6.808;2022-12-29T01:14:06;6.53;;;4.05;;
68870;SDS011;55906;52.278;6.808;2022-12-29T01:16:33;4.90;;;3.63;;
68870;SDS011;55906;52.278;6.808;2022-12-29T01:19:01;6.72;;;4.38;;
68870;SDS011;55906;52.278;6.808;2022-12-29T01:21:28;5.05;;;3.67;;
68870;SDS011;55906;52.278;6.808;2022-12-29T01:23:55;4.95;;;3.90;;
68870;SDS011;55906;52.278;6.808;2022-12-29T01:26:22;4.88;;;3.55;;
68870;SDS011;55906;52.278;6.808;2022-12-29T01:28:50;5.10;;;3.00;;
68870;SDS011;55906;52.278;6.808;2022-12-29T01:31:16;4.72;;;3.65;;
68870;SDS011;55906;52.278;6.808;2022-12-29T01:33:43;4.40;;;3.60;;
68870;SDS011;55906;52.278;6.808;2022-12-29T01:36:10;5.00;;;3.63;;
68870;SDS011;55906;52.278;6.808;2022-12-29T01:38:39;5.35;;;3.38;;
68870;SDS011;55906;52.278;6.808;2022-12-29T01:41:07;4.77;;;3.33;;
68870;SDS011;55906;52.278;6.808;2022-12-29T01:43:38;5.40;;;2.80;;
68870;SDS011;55906;52.278;6.808;2022-12-29T01:46:08;4.18;;;3.17;;
68870;SDS011;55906;52.278;6.808;2022-12-29T01:48:45;4.15;;;2.97;;
68870;SDS011;55906;52.278;6.808;2022-12-29T01:51:14;4.05;;;2.70;;
68870;SDS011;55906;52.278;6.808;2022-12-29T01:53:42;4.30;;;3.10;;
68870;SDS011;55906;52.278;6.808;2022-12-29T01:56:11;6.25;;;2.97;;
68870;SDS011;55906;52.278;6.808;2022-12-29T01:58:41;3.83;;;2.78;;
68870;SDS011;55906;52.278;6.808;2022-12-29T02:01:14;5.28;;;2.58;;
68870;SDS011;55906;52.278;6.808;2022-12-29T02:03:44;3.83;;;2.72;;
68870;SDS011;55906;52.278;6.808;2022-12-29T02:06:12;6.37;;;2.80;;
68870;SDS011;55906;52.278;6.808;2022-12-29T02:08:43;3.55;;;2.38;;
68870;SDS011;55906;52.278;6.808;2022-12-29T02:11:13;5.55;;;2.80;;
68870;SDS011;55906;52.278;6.808;2022-12-29T02:13:42;4.72;;;2.90;;
68870;SDS011;55906;52.278;6.808;2022-12-29T02:16:12;4.05;;;3.17;;
68870;SDS011;55906;52.278;6.808;2022-12-29T02:18:51;6.77;;;3.43;;
68870;SDS011;55906;52.278;6.808;2022-12-29T02:24:28;5.22;;;3.55;;
68870;SDS011;55906;52.278;6.808;2022-12-29T02:27:22;4.97;;;3.70;;
68870;SDS011;55906;52.278;6.808;2022-12-29T02:30:00;7.00;;;4.72;;
68870;SDS011;55906;52.278;6.808;2022-12-29T02:32:35;5.67;;;3.80;;
68870;SDS011;55906;52.278;6.808;2022-12-29T02:35:07;6.88;;;4.03;;
68870;SDS011;55906;52.278;6.808;2022-12-29T02:37:41;5.38;;;3.80;;
68870;SDS011;55906;52.278;6.808;2022-12-29T02:40:17;5.63;;;4.30;;
68870;SDS011;55906;52.278;6.808;2022-12-29T02:42:51;5.45;;;3.88;;
68870;SDS011;55906;52.278;6.808;2022-12-29T02:45:30;6.13;;;3.77;;
68870;SDS011;55906;52.278;6.808;2022-12-29T02:48:03;6.15;;;3.72;;
68870;SDS011;55906;52.278;6.808;2022-12-29T02:50:35;5.55;;;3.90;;
68870;SDS011;55906;52.278;6.808;2022-12-29T02:53:05;4.68;;;3.10;;
68870;SDS011;55906;52.278;6.808;2022-12-29T02:55:35;5.15;;;3.75;;
68870;SDS011;55906;52.278;6.808;2022-12-29T02:58:15;7.30;;;3.20;;
68870;SDS011;55906;52.278;6.808;2022-12-29T03:00:47;5.30;;;3.20;;
68870;SDS011;55906;52.278;6.808;2022-12-29T03:03:35;4.30;;;3.08;;
68870;SDS011;55906;52.278;6.808;2022-12-29T03:06:17;4.10;;;2.90;;
68870;SDS011;55906;52.278;6.808;2022-12-29T03:08:54;4.13;;;3.08;;
68870;SDS011;55906;52.278;6.808;2022-12-29T03:11:27;4.93;;;3.10;;
68870;SDS011;55906;52.278;6.808;2022-12-29T03:14:21;4.10;;;3.10;;
68870;SDS011;55906;52.278;6.808;2022-12-29T03:17:13;5.35;;;3.20;;
68870;SDS011;55906;52.278;6.808;2022-12-29T03:19:52;5.23;;;2.93;;
68870;SDS011;55906;52.278;6.808;2022-12-29T03:22:24;5.68;;;3.10;;
68870;SDS011;55906;52.278;6.808;2022-12-29T03:24:58;5.47;;;3.25;;
68870;SDS011;55906;52.278;6.808;2022-12-29T03:27:29;4.07;;;3.03;;
68870;SDS011;55906;52.278;6.808;2022-12-29T03:29:59;4.85;;;3.63;;
68870;SDS011;55906;52.278;6.808;2022-12-29T03:32:31;4.70;;;3.10;;
68870;SDS011;55906;52.278;6.808;2022-12-29T03:35:03;4.40;;;2.85;;
68870;SDS011;55906;52.278;6.808;2022-12-29T03:37:34;5.10;;;3.45;;
68870;SDS011;55906;52.278;6.808;2022-12-29T03:40:06;4.20;;;2.80;;
68870;SDS011;55906;52.278;6.808;2022-12-29T03:42:34;5.72;;;2.97;;
68870;SDS011;55906;52.278;6.808;2022-12-29T03:45:03;3.93;;;2.70;;
68870;SDS011;55906;52.278;6.808;2022-12-29T03:47:32;3.80;;;2.55;;
68870;SDS011;55906;52.278;6.808;2022-12-29T03:49:59;4.85;;;2.90;;
68870;SDS011;55906;52.278;6.808;2022-12-29T03:52:27;4.40;;;3.00;;
68870;SDS011;55906;52.278;6.808;2022-12-29T03:54:54;8.73;;;2.88;;
68870;SDS011;55906;52.278;6.808;2022-12-29T03:57:21;4.33;;;2.50;;
68870;SDS011;55906;52.278;6.808;2022-12-29T03:59:47;4.05;;;2.55;;
68870;SDS011;55906;52.278;6.808;2022-12-29T04:02:14;4.03;;;2.72;;
68870;SDS011;55906;52.278;6.808;2022-12-29T04:04:41;3.75;;;2.50;;
68870;SDS011;55906;52.278;6.808;2022-12-29T04:07:07;6.20;;;3.08;;
68870;SDS011;55906;52.278;6.808;2022-12-29T04:09:35;4.47;;;2.60;;
68870;SDS011;55906;52.278;6.808;2022-12-29T04:12:02;6.60;;;3.00;;
68870;SDS011;55906;52.278;6.808;2022-12-29T04:14:29;4.72;;;2.50;;
68870;SDS011;55906;52.278;6.808;2022-12-29T04:16:56;4.75;;;2.70;;
68870;SDS011;55906;52.278;6.808;2022-12-29T04:19:22;4.22;;;2.60;;
68870;SDS011;55906;52.278;6.808;2022-12-29T04:21:49;4.30;;;2.60;;
68870;SDS011;55906;52.278;6.808;2022-12-29T04:24:15;4.70;;;2.70;;
68870;SDS011;55906;52.278;6.808;2022-12-29T04:26:43;4.15;;;2.60;;
68870;SDS011;55906;52.278;6.808;2022-12-29T04:29:10;4.68;;;3.03;;
68870;SDS011;55906;52.278;6.808;2022-12-29T04:31:37;5.75;;;2.90;;
68870;SDS011;55906;52.278;6.808;2022-12-29T04:34:03;7.23;;;2.67;;
68870;SDS011;55906;52.278;6.808;2022-12-29T04:36:30;4.60;;;2.40;;
68870;SDS011;55906;52.278;6.808;2022-12-29T04:38:57;4.63;;;2.63;;
68870;SDS011;55906;52.278;6.808;2022-12-29T04:41:23;4.65;;;2.55;;
68870;SDS011;55906;52.278;6.808;2022-12-29T04:43:52;5.47;;;2.72;;
68870;SDS011;55906;52.278;6.808;2022-12-29T04:46:18;4.57;;;2.60;;
68870;SDS011;55906;52.278;6.808;2022-12-29T04:48:45;6.93;;;3.10;;
68870;SDS011;55906;52.278;6.808;2022-12-29T04:51:12;4.63;;;2.92;;
68870;SDS011;55906;52.278;6.808;2022-12-29T04:53:38;3.90;;;2.60;;
68870;SDS011;55906;52.278;6.808;2022-12-29T04:56:05;5.05;;;2.70;;
68870;SDS011;55906;52.278;6.808;2022-12-29T04:58:34;6.60;;;2.90;;
68870;SDS011;55906;52.278;6.808;2022-12-29T05:01:02;4.00;;;2.85;;
68870;SDS011;55906;52.278;6.808;2022-12-29T05:03:28;4.32;;;2.95;;
68870;SDS011;55906;52.278;6.808;2022-12-29T05:05:55;8.77;;;3.25;;
68870;SDS011;55906;52.278;6.808;2022-12-29T05:08:23;6.03;;;3.08;;
68870;SDS011;55906;52.278;6.808;2022-12-29T05:10:50;4.03;;;2.50;;
68870;SDS011;55906;52.278;6.808;2022-12-29T05:13:17;3.83;;;2.42;;
68870;SDS011;55906;52.278;6.808;2022-12-29T05:15:45;4.13;;;2.63;;
68870;SDS011;55906;52.278;6.808;2022-12-29T05:18:15;6.18;;;2.90;;
68870;SDS011;55906;52.278;6.808;2022-12-29T05:20:41;5.47;;;3.28;;
68870;SDS011;55906;52.278;6.808;2022-12-29T05:23:08;5.77;;;3.30;;
68870;SDS011;55906;52.278;6.808;2022-12-29T05:25:35;6.07;;;2.80;;
68870;SDS011;55906;52.278;6.808;2022-12-29T05:28:01;4.82;;;3.00;;
68870;SDS011;55906;52.278;6.808;2022-12-29T05:30:28;4.85;;;2.60;;
68870;SDS011;55906;52.278;6.808;2022-12-29T05:32:55;4.60;;;3.25;;
68870;SDS011;55906;52.278;6.808;2022-12-29T05:35:23;5.00;;;2.60;;
68870;SDS011;55906;52.278;6.808;2022-12-29T05:37:49;4.05;;;2.60;;
68870;SDS011;55906;52.278;6.808;2022-12-29T05:40:16;5.38;;;2.80;;
68870;SDS011;55906;52.278;6.808;2022-12-29T05:42:43;5.03;;;2.60;;
68870;SDS011;55906;52.278;6.808;2022-12-29T05:45:10;7.43;;;2.70;;
68870;SDS011;55906;52.278;6.808;2022-12-29T05:47:36;6.73;;;3.00;;
68870;SDS011;55906;52.278;6.808;2022-12-29T05:50:03;4.10;;;2.55;;
68870;SDS011;55906;52.278;6.808;2022-12-29T05:52:32;6.15;;;3.20;;
68870;SDS011;55906;52.278;6.808;2022-12-29T05:54:58;8.05;;;3.25;;
68870;SDS011;55906;52.278;6.808;2022-12-29T05:57:25;4.30;;;3.00;;
68870;SDS011;55906;52.278;6.808;2022-12-29T05:59:52;6.80;;;3.93;;
68870;SDS011;55906;52.278;6.808;2022-12-29T06:02:18;7.00;;;2.90;;
68870;SDS011;55906;52.278;6.808;2022-12-29T06:04:45;6.18;;;2.90;;
68870;SDS011;55906;52.278;6.808;2022-12-29T06:07:11;5.97;;;3.28;;
68870;SDS011;55906;52.278;6.808;2022-12-29T06:09:39;7.18;;;3.15;;
68870;SDS011;55906;52.278;6.808;2022-12-29T06:12:06;6.30;;;2.90;;
68870;SDS011;55906;52.278;6.808;2022-12-29T06:14:33;5.35;;;2.70;;
68870;SDS011;55906;52.278;6.808;2022-12-29T06:16:59;8.00;;;3.17;;
68870;SDS011;55906;52.278;6.808;2022-12-29T06:19:26;7.72;;;3.00;;
68870;SDS011;55906;52.278;6.808;2022-12-29T06:21:52;6.30;;;3.08;;
68870;SDS011;55906;52.278;6.808;2022-12-29T06:24:19;7.30;;;3.20;;
68870;SDS011;55906;52.278;6.808;2022-12-29T06:26:48;8.43;;;3.22;;
68870;SDS011;55906;52.278;6.808;2022-12-29T06:29:14;6.45;;;3.42;;
68870;SDS011;55906;52.278;6.808;2022-12-29T06:31:42;5.80;;;3.03;;
68870;SDS011;55906;52.278;6.808;2022-12-29T06:34:10;5.57;;;2.70;;
68870;SDS011;55906;52.278;6.808;2022-12-29T06:36:37;4.90;;;2.85;;
68870;SDS011;55906;52.278;6.808;2022-12-29T06:39:04;5.88;;;3.15;;
68870;SDS011;55906;52.278;6.808;2022-12-29T06:41:31;6.40;;;3.35;;
68870;SDS011;55906;52.278;6.808;2022-12-29T06:43:59;4.85;;;3.67;;
68870;SDS011;55906;52.278;6.808;2022-12-29T06:46:26;6.13;;;2.83;;
68870;SDS011;55906;52.278;6.808;2022-12-29T06:48:52;7.10;;;3.35;;
68870;SDS011;55906;52.278;6.808;2022-12-29T06:51:19;6.47;;;3.17;;
68870;SDS011;55906;52.278;6.808;2022-12-29T06:53:45;7.93;;;3.40;;
68870;SDS011;55906;52.278;6.808;2022-12-29T06:56:12;7.30;;;4.18;;
68870;SDS011;55906;52.278;6.808;2022-12-29T06:58:39;7.53;;;3.70;;
68870;SDS011;55906;52.278;6.808;2022-12-29T07:01:06;7.93;;;3.40;;
68870;SDS011;55906;52.278;6.808;2022-12-29T07:03:33;5.72;;;3.38;;
68870;SDS011;55906;52.278;6.808;2022-12-29T07:06:00;9.05;;;3.38;;
68870;SDS011;55906;52.278;6.808;2022-12-29T07:08:26;10.30;;;3.50;;
68870;SDS011;55906;52.278;6.808;2022-12-29T07:10:53;8.77;;;3.40;;
68870;SDS011;55906;52.278;6.808;2022-12-29T07:13:19;8.10;;;3.40;;
68870;SDS011;55906;52.278;6.808;2022-12-29T07:15:46;6.40;;;3.33;;
68870;SDS011;55906;52.278;6.808;2022-12-29T07:18:14;7.63;;;2.97;;
68870;SDS011;55906;52.278;6.808;2022-12-29T07:20:41;8.55;;;3.40;;
68870;SDS011;55906;52.278;6.808;2022-12-29T07:23:07;7.30;;;2.93;;
68870;SDS011;55906;52.278;6.808;2022-12-29T07:25:34;9.18;;;3.25;;
68870;SDS011;55906;52.278;6.808;2022-12-29T07:28:01;6.72;;;3.40;;
68870;SDS011;55906;52.278;6.808;2022-12-29T07:30:27;9.45;;;4.13;;
68870;SDS011;55906;52.278;6.808;2022-12-29T07:32:54;7.13;;;3.03;;
68870;SDS011;55906;52.278;6.808;2022-12-29T07:35:22;6.83;;;2.70;;
68870;SDS011;55906;52.278;6.808;2022-12-29T07:37:49;9.18;;;3.58;;
68870;SDS011;55906;52.278;6.808;2022-12-29T07:40:15;5.43;;;2.83;;
68870;SDS011;55906;52.278;6.808;2022-12-29T07:42:42;7.88;;;3.00;;
68870;SDS011;55906;52.278;6.808;2022-12-29T07:45:09;9.40;;;3.28;;
68870;SDS011;55906;52.278;6.808;2022-12-29T07:47:36;6.57;;;2.90;;
68870;SDS011;55906;52.278;6.808;2022-12-29T07:50:03;10.00;;;3.13;;
68870;SDS011;55906;52.278;6.808;2022-12-29T07:52:32;8.98;;;3.28;;
68870;SDS011;55906;52.278;6.808;2022-12-29T07:54:58;7.70;;;3.17;;
68870;SDS011;55906;52.278;6.808;2022-12-29T07:57:25;8.40;;;3.50;;
68870;SDS011;55906;52.278;6.808;2022-12-29T07:59:52;9.37;;;3.20;;
68870;SDS011;55906;52.278;6.808;2022-12-29T08:02:18;7.82;;;3.33;;
68870;SDS011;55906;52.278;6.808;2022-12-29T08:04:45;7.65;;;3.30;;
68870;SDS011;55906;52.278;6.808;2022-12-29T08:07:11;6.38;;;3.00;;
68870;SDS011;55906;52.278;6.808;2022-12-29T08:09:39;7.55;;;3.67;;
68870;SDS011;55906;52.278;6.808;2022-12-29T08:12:07;6.73;;;3.30;;
68870;SDS011;55906;52.278;6.808;2022-12-29T08:14:36;8.57;;;3.40;;
68870;SDS011;55906;52.278;6.808;2022-12-29T08:17:02;9.35;;;3.30;;
68870;SDS011;55906;52.278;6.808;2022-12-29T08:19:29;6.93;;;3.17;;
68870;SDS011;55906;52.278;6.808;2022-12-29T08:21:56;6.88;;;3.20;;
68870;SDS011;55906;52.278;6.808;2022-12-29T08:24:22;7.70;;;3.50;;
68870;SDS011;55906;52.278;6.808;2022-12-29T08:26:50;6.60;;;3.22;;
68870;SDS011;55906;52.278;6.808;2022-12-29T08:29:17;8.07;;;3.45;;
68870;SDS011;55906;52.278;6.808;2022-12-29T08:31:44;7.82;;;3.20;;
68870;SDS011;55906;52.278;6.808;2022-12-29T08:34:11;6.57;;;2.73;;
68870;SDS011;55906;52.278;6.808;2022-12-29T08:36:37;8.55;;;3.20;;
68870;SDS011;55906;52.278;6.808;2022-12-29T08:39:04;14.48;;;3.75;;
68870;SDS011;55906;52.278;6.808;2022-12-29T08:41:31;9.00;;;3.20;;
68870;SDS011;55906;52.278;6.808;2022-12-29T08:43:59;8.27;;;3.13;;
68870;SDS011;55906;52.278;6.808;2022-12-29T08:46:26;7.33;;;2.60;;
68870;SDS011;55906;52.278;6.808;2022-12-29T08:48:52;8.55;;;2.90;;
68870;SDS011;55906;52.278;6.808;2022-12-29T08:51:19;6.30;;;3.45;;
68870;SDS011;55906;52.278;6.808;2022-12-29T08:53:46;8.40;;;2.95;;
68870;SDS011;55906;52.278;6.808;2022-12-29T08:56:12;10.05;;;3.05;;
68870;SDS011;55906;52.278;6.808;2022-12-29T08:58:39;8.40;;;3.20;;
68870;SDS011;55906;52.278;6.808;2022-12-29T09:01:08;6.80;;;2.97;;
68870;SDS011;55906;52.278;6.808;2022-12-29T09:03:36;8.02;;;3.38;;
68870;SDS011;55906;52.278;6.808;2022-12-29T09:06:03;9.05;;;3.08;;
68870;SDS011;55906;52.278;6.808;2022-12-29T09:08:29;7.60;;;2.88;;
68870;SDS011;55906;52.278;6.808;2022-12-29T09:11:04;8.93;;;2.93;;
68870;SDS011;55906;52.278;6.808;2022-12-29T09:13:32;6.82;;;2.95;;
68870;SDS011;55906;52.278;6.808;2022-12-29T09:15:59;8.52;;;2.70;;
68870;SDS011;55906;52.278;6.808;2022-12-29T09:18:27;8.55;;;3.00;;
68870;SDS011;55906;52.278;6.808;2022-12-29T09:20:55;4.38;;;2.47;;
68870;SDS011;55906;52.278;6.808;2022-12-29T09:23:23;11.47;;;3.17;;
68870;SDS011;55906;52.278;6.808;2022-12-29T09:25:50;8.82;;;2.92;;
68870;SDS011;55906;52.278;6.808;2022-12-29T09:28:17;6.40;;;2.88;;
68870;SDS011;55906;52.278;6.808;2022-12-29T09:30:44;9.77;;;2.80;;
68870;SDS011;55906;52.278;6.808;2022-12-29T09:33:11;6.47;;;2.72;;
68870;SDS011;55906;52.278;6.808;2022-12-29T09:35:42;8.43;;;2.80;;
68870;SDS011;55906;52.278;6.808;2022-12-29T09:38:09;10.23;;;3.03;;
68870;SDS011;55906;52.278;6.808;2022-12-29T09:40:36;7.70;;;3.15;;
68870;SDS011;55906;52.278;6.808;2022-12-29T09:43:11;7.97;;;2.92;;
68870;SDS011;55906;52.278;6.808;2022-12-29T09:45:57;8.43;;;2.83;;
68870;SDS011;55906;52.278;6.808;2022-12-29T09:48:33;8.83;;;2.90;;
68870;SDS011;55906;52.278;6.808;2022-12-29T09:51:07;8.35;;;2.75;;
68870;SDS011;55906;52.278;6.808;2022-12-29T09:53:38;9.15;;;3.35;;
68870;SDS011;55906;52.278;6.808;2022-12-29T09:56:10;8.82;;;3.47;;
68870;SDS011;55906;52.278;6.808;2022-12-29T09:58:42;8.30;;;3.20;;
68870;SDS011;55906;52.278;6.808;2022-12-29T10:01:14;7.77;;;3.00;;
68870;SDS011;55906;52.278;6.808;2022-12-29T10:03:51;9.68;;;3.10;;
68870;SDS011;55906;52.278;6.808;2022-12-29T10:06:21;10.88;;;3.30;;
68870;SDS011;55906;52.278;6.808;2022-12-29T10:08:53;9.00;;;3.25;;
68870;SDS011;55906;52.278;6.808;2022-12-29T10:11:29;14.77;;;3.58;;
68870;SDS011;55906;52.278;6.808;2022-12-29T10:14:12;11.97;;;3.30;;
68870;SDS011;55906;52.278;6.808;2022-12-29T10:16:54;7.35;;;2.92;;
68870;SDS011;55906;52.278;6.808;2022-12-29T10:19:37;8.75;;;3.10;;
68870;SDS011;55906;52.278;6.808;2022-12-29T10:22:19;11.25;;;3.38;;
68870;SDS011;55906;52.278;6.808;2022-12-29T10:24:58;9.38;;;3.10;;
68870;SDS011;55906;52.278;6.808;2022-12-29T10:27:30;7.67;;;2.90;;
68870;SDS011;55906;52.278;6.808;2022-12-29T10:29:59;7.57;;;3.28;;
68870;SDS011;55906;52.278;6.808;2022-12-29T10:32:30;11.60;;;3.10;;
68870;SDS011;55906;52.278;6.808;2022-12-29T10:35:03;9.48;;;2.92;;
68870;SDS011;55906;52.278;6.808;2022-12-29T10:37:38;8.68;;;2.80;;
68870;SDS011;55906;52.278;6.808;2022-12-29T10:40:13;8.67;;;3.47;;
68870;SDS011;55906;52.278;6.808;2022-12-29T10:42:46;11.10;;;3.67;;
68870;SDS011;55906;52.278;6.808;2022-12-29T10:45:17;9.77;;;3.08;;
68870;SDS011;55906;52.278;6.808;2022-12-29T10:47:51;9.52;;;2.83;;
68870;SDS011;55906;52.278;6.808;2022-12-29T10:50:22;8.75;;;2.92;;
68870;SDS011;55906;52.278;6.808;2022-12-29T10:52:51;8.23;;;3.00;;
68870;SDS011;55906;52.278;6.808;2022-12-29T10:55:19;7.80;;;3.50;;
68870;SDS011;55906;52.278;6.808;2022-12-29T10:57:49;10.65;;;3.92;;
68870;SDS011;55906;52.278;6.808;2022-12-29T11:00:16;5.65;;;2.70;;
68870;SDS011;55906;52.278;6.808;2022-12-29T11:02:59;5.65;;;2.90;;
68870;SDS011;55906;52.278;6.808;2022-12-29T11:05:35;9.80;;;2.87;;
68870;SDS011;55906;52.278;6.808;2022-12-29T11:08:10;7.45;;;2.92;;
68870;SDS011;55906;52.278;6.808;2022-12-29T11:10:41;7.15;;;2.50;;
68870;SDS011;55906;52.278;6.808;2022-12-29T11:13:13;7.13;;;2.50;;
68870;SDS011;55906;52.278;6.808;2022-12-29T11:15:42;6.20;;;2.90;;
68870;SDS011;55906;52.278;6.808;2022-12-29T11:20:58;5.93;;;3.13;;
68870;SDS011;55906;52.278;6.808;2022-12-29T11:23:33;7.00;;;3.13;;
68870;SDS011;55906;52.278;6.808;2022-12-29T11:26:11;7.20;;;3.03;;
68870;SDS011;55906;52.278;6.808;2022-12-29T11:28:41;6.15;;;3.00;;
68870;SDS011;55906;52.278;6.808;2022-12-29T11:31:10;11.87;;;3.87;;
68870;SDS011;55906;52.278;6.808;2022-12-29T11:33:41;7.70;;;2.97;;
68870;SDS011;55906;52.278;6.808;2022-12-29T11:36:08;10.25;;;2.92;;
68870;SDS011;55906;52.278;6.808;2022-12-29T11:38:41;11.15;;;3.40;;
68870;SDS011;55906;52.278;6.808;2022-12-29T11:41:12;7.30;;;3.40;;
68870;SDS011;55906;52.278;6.808;2022-12-29T11:43:44;7.60;;;3.10;;
68870;SDS011;55906;52.278;6.808;2022-12-29T11:46:13;6.55;;;2.92;;
68870;SDS011;55906;52.278;6.808;2022-12-29T11:48:42;9.65;;;3.50;;
68870;SDS011;55906;52.278;6.808;2022-12-29T11:51:09;8.88;;;3.72;;
68870;SDS011;55906;52.278;6.808;2022-12-29T11:53:38;7.57;;;3.55;;
68870;SDS011;55906;52.278;6.808;2022-12-29T11:56:10;9.93;;;3.27;;
68870;SDS011;55906;52.278;6.808;2022-12-29T11:58:40;7.53;;;3.58;;
68870;SDS011;55906;52.278;6.808;2022-12-29T12:01:07;10.77;;;4.20;;
68870;SDS011;55906;52.278;6.808;2022-12-29T12:03:40;7.78;;;3.85;;
68870;SDS011;55906;52.278;6.808;2022-12-29T12:06:14;12.82;;;4.57;;
68870;SDS011;55906;52.278;6.808;2022-12-29T12:08:48;11.33;;;5.30;;
68870;SDS011;55906;52.278;6.808;2022-12-29T12:11:20;11.45;;;3.47;;
68870;SDS011;55906;52.278;6.808;2022-12-29T12:13:53;10.45;;;4.00;;
68870;SDS011;55906;52.278;6.808;2022-12-29T12:16:26;11.27;;;3.70;;
68870;SDS011;55906;52.278;6.808;2022-12-29T12:18:58;10.27;;;3.85;;
68870;SDS011;55906;52.278;6.808;2022-12-29T12:21:37;10.37;;;3.80;;
68870;SDS011;55906;52.278;6.808;2022-12-29T12:24:11;10.23;;;3.70;;
68870;SDS011;55906;52.278;6.808;2022-12-29T12:26:53;11.98;;;3.80;;
68870;SDS011;55906;52.278;6.808;2022-12-29T12:29:24;7.60;;;3.85;;
68870;SDS011;55906;52.278;6.808;2022-12-29T12:31:59;11.65;;;4.30;;
68870;SDS011;55906;52.278;6.808;2022-12-29T12:34:31;8.33;;;4.00;;
68870;SDS011;55906;52.278;6.808;2022-12-29T12:40:23;9.45;;;4.28;;
68870;SDS011;55906;52.278;6.808;2022-12-29T12:43:05;16.73;;;6.13;;
68870;SDS011;55906;52.278;6.808;2022-12-29T12:45:52;12.10;;;4.97;;
68870;SDS011;55906;52.278;6.808;2022-12-29T12:48:38;16.10;;;5.30;;
68870;SDS011;55906;52.278;6.808;2022-12-29T12:51:24;11.43;;;5.35;;
68870;SDS011;55906;52.278;6.808;2022-12-29T12:54:06;14.57;;;6.60;;
68870;SDS011;55906;52.278;6.808;2022-12-29T12:57:00;13.70;;;6.05;;
68870;SDS011;55906;52.278;6.808;2022-12-29T12:59:36;17.73;;;6.95;;
68870;SDS011;55906;52.278;6.808;2022-12-29T13:02:19;17.37;;;6.60;;
68870;SDS011;55906;52.278;6.808;2022-12-29T13:05:02;14.77;;;5.57;;
68870;SDS011;55906;52.278;6.808;2022-12-29T13:07:44;12.13;;;5.70;;
68870;SDS011;55906;52.278;6.808;2022-12-29T13:10:23;17.30;;;7.15;;
68870;SDS011;55906;52.278;6.808;2022-12-29T13:13:03;16.52;;;6.07;;
68870;SDS011;55906;52.278;6.808;2022-12-29T13:15:56;12.57;;;5.43;;
68870;SDS011;55906;52.278;6.808;2022-12-29T13:18:33;24.83;;;10.48;;
68870;SDS011;55906;52.278;6.808;2022-12-29T13:21:09;22.88;;;9.35;;
68870;SDS011;55906;52.278;6.808;2022-12-29T13:23:50;18.88;;;6.85;;
68870;SDS011;55906;52.278;6.808;2022-12-29T13:26:24;21.27;;;9.27;;
68870;SDS011;55906;52.278;6.808;2022-12-29T13:28:59;18.57;;;7.87;;
68870;SDS011;55906;52.278;6.808;2022-12-29T13:31:36;22.60;;;8.63;;
68870;SDS011;55906;52.278;6.808;2022-12-29T13:34:11;23.52;;;10.18;;
68870;SDS011;55906;52.278;6.808;2022-12-29T13:36:51;27.75;;;10.38;;
68870;SDS011;55906;52.278;6.808;2022-12-29T13:39:23;25.45;;;9.98;;
68870;SDS011;55906;52.278;6.808;2022-12-29T13:41:54;14.97;;;6.43;;
68870;SDS011;55906;52.278;6.808;2022-12-29T13:44:23;14.43;;;6.60;;
68870;SDS011;55906;52.278;6.808;2022-12-29T13:46:54;20.63;;;7.40;;
68870;SDS011;55906;52.278;6.808;2022-12-29T13:49:24;17.95;;;7.07;;
68870;SDS011;55906;52.278;6.808;2022-12-29T13:51:52;14.95;;;7.07;;
68870;SDS011;55906;52.278;6.808;2022-12-29T13:54:29;14.80;;;6.93;;
68870;SDS011;55906;52.278;6.808;2022-12-29T13:57:10;13.65;;;5.97;;
68870;SDS011;55906;52.278;6.808;2022-12-29T13:59:50;12.77;;;5.97;;
68870;SDS011;55906;52.278;6.808;2022-12-29T14:02:26;12.82;;;5.72;;
68870;SDS011;55906;52.278;6.808;2022-12-29T14:04:59;16.17;;;6.55;;
68870;SDS011;55906;52.278;6.808;2022-12-29T14:07:27;16.80;;;6.80;;
68870;SDS011;55906;52.278;6.808;2022-12-29T14:09:55;17.65;;;5.68;;
68870;SDS011;55906;52.278;6.808;2022-12-29T14:12:31;17.45;;;6.70;;
68870;SDS011;55906;52.278;6.808;2022-12-29T14:15:04;16.63;;;7.03;;
68870;SDS011;55906;52.278;6.808;2022-12-29T14:17:33;15.32;;;5.75;;
68870;SDS011;55906;52.278;6.808;2022-12-29T14:19:59;13.37;;;5.93;;
68870;SDS011;55906;52.278;6.808;2022-12-29T14:22:27;11.13;;;5.28;;
68870;SDS011;55906;52.278;6.808;2022-12-29T14:24:54;12.43;;;5.50;;
68870;SDS011;55906;52.278;6.808;2022-12-29T14:30:48;12.25;;;5.88;;
68870;SDS011;55906;52.278;6.808;2022-12-29T14:33:16;10.27;;;5.30;;
68870;SDS011;55906;52.278;6.808;2022-12-29T14:35:44;13.55;;;5.70;;
68870;SDS011;55906;52.278;6.808;2022-12-29T14:38:18;16.08;;;6.57;;
68870;SDS011;55906;52.278;6.808;2022-12-29T14:40:48;10.77;;;5.47;;
68870;SDS011;55906;52.278;6.808;2022-12-29T14:43:23;13.32;;;5.43;;
68870;SDS011;55906;52.278;6.808;2022-12-29T14:45:55;10.63;;;5.07;;
68870;SDS011;55906;52.278;6.808;2022-12-29T14:48:30;13.02;;;5.13;;
68870;SDS011;55906;52.278;6.808;2022-12-29T14:51:01;12.40;;;5.30;;
68870;SDS011;55906;52.278;6.808;2022-12-29T14:53:43;13.52;;;5.68;;
68870;SDS011;55906;52.278;6.808;2022-12-29T14:56:12;21.13;;;7.93;;
68870;SDS011;55906;52.278;6.808;2022-12-29T14:58:44;9.77;;;5.07;;
68870;SDS011;55906;52.278;6.808;2022-12-29T15:01:20;14.90;;;5.82;;
68870;SDS011;55906;52.278;6.808;2022-12-29T15:03:51;12.75;;;5.82;;
68870;SDS011;55906;52.278;6.808;2022-12-29T15:06:22;12.60;;;5.20;;
68870;SDS011;55906;52.278;6.808;2022-12-29T15:08:53;15.02;;;5.78;;
68870;SDS011;55906;52.278;6.808;2022-12-29T15:11:28;14.17;;;5.07;;
68870;SDS011;55906;52.278;6.808;2022-12-29T15:16:58;12.48;;;5.20;;
68870;SDS011;55906;52.278;6.808;2022-12-29T15:19:26;14.60;;;4.65;;
68870;SDS011;55906;52.278;6.808;2022-12-29T15:21:54;11.38;;;4.60;;
68870;SDS011;55906;52.278;6.808;2022-12-29T15:24:22;6.70;;;4.50;;